Oneida, Wisconsin
Current Conditions -  °F | °C
As of 7:53 PM on Monday 20 Oct 2014 (Local Time) from KGRB Reporting Station
Overcast Overcast  
Wind Chill: 44°   Ceiling: 3800
Heat Index: 48°   Visibility: 10mi
Dew Point: 44°   Wind: 9mph
Humidity: 86%   Direction: 340°NNW
Pressure: 30"   Gusts: NA
Location:  44.49°N, 88.22°W
Report Text: KGRB 210053Z 34008KT 10SM BKN038 OVC047 09/07 A3000 RMK AO2 RAE2358B22E32 SLP163 P0000 T00890067
Loading
Personal Weather Stations






























Interactive Weather Map
Tropical Storm Tracking
New forecast layout! Learn more

10-Day Weather Forecast

Advertisements
Track Severe Weather on mobile